createdAt,value
2017-06-26T00:00:37.440Z,87.72
2017-06-26T00:01:37.353Z,87.34
2017-06-26T00:02:37.449Z,87.37
2017-06-26T00:03:37.445Z,87.69
2017-06-26T00:04:37.437Z,88.17
2017-06-26T00:05:37.442Z,87.74
2017-06-26T00:06:37.357Z,87.67
2017-06-26T00:07:37.452Z,87.69
2017-06-26T00:08:37.509Z,87.98
2017-06-26T00:09:37.422Z,88.01
2017-06-26T00:10:37.449Z,88.01
2017-06-26T00:11:37.363Z,87.80
2017-06-26T00:12:37.408Z,88.73
2017-06-26T00:13:37.364Z,89.14
2017-06-26T00:14:37.451Z,89.03
2017-06-26T00:15:37.424Z,88.84
2017-06-26T00:16:37.362Z,88.92
2017-06-26T00:17:37.427Z,89.24
2017-06-26T00:18:37.453Z,88.95
2017-06-26T00:19:37.366Z,89.27
2017-06-26T00:20:37.412Z,89.43
2017-06-26T00:21:37.444Z,89.24
2017-06-26T00:22:37.449Z,89.80
2017-06-26T00:23:37.370Z,89.86
2017-06-26T00:24:37.361Z,89.80
2017-06-26T00:25:37.463Z,90.07
2017-06-26T00:26:37.415Z,90.18
2017-06-26T00:27:37.454Z,90.23
2017-06-26T00:28:37.508Z,90.07
2017-06-26T00:29:37.463Z,90.23
2017-06-26T00:30:37.370Z,90.18
2017-06-26T00:31:37.462Z,89.91
2017-06-26T00:32:37.377Z,90.20
2017-06-26T00:33:37.372Z,90.47
2017-06-26T00:34:37.459Z,91.11
2017-06-26T00:35:37.374Z,92.16
2017-06-26T00:36:37.454Z,91.38
2017-06-26T00:37:37.371Z,91.28
2017-06-26T00:38:37.468Z,91.20
2017-06-26T00:39:37.465Z,91.28
2017-06-26T00:40:37.379Z,90.98
2017-06-26T00:41:37.444Z,91.25
2017-06-26T00:42:37.466Z,91.82
2017-06-26T00:43:37.432Z,91.84
2017-06-26T00:44:37.382Z,92.30
2017-06-26T00:45:37.442Z,92.43
2017-06-26T00:46:37.378Z,93.10
2017-06-26T00:47:37.468Z,93.45
2017-06-26T00:48:37.381Z,94.02
2017-06-26T00:49:37.372Z,93.72
2017-06-26T00:50:37.380Z,94.48
2017-06-26T00:51:37.376Z,94.42
2017-06-26T00:52:37.470Z,94.21
2017-06-26T00:53:37.425Z,94.75
2017-06-26T00:54:37.475Z,95.66
2017-06-26T00:55:37.388Z,95.28
2017-06-26T00:56:37.427Z,95.26
2017-06-26T00:57:37.523Z,95.83
2017-06-26T00:58:37.455Z,96.07
2017-06-26T00:59:37.451Z,96.74
2017-06-26T01:00:37.481Z,97.26
2017-06-26T01:01:37.459Z,97.21
2017-06-26T01:02:37.386Z,97.34
2017-06-26T01:03:37.475Z,97.21
2017-06-26T01:04:37.457Z,97.21
2017-06-26T01:05:37.483Z,97.34
2017-06-26T01:06:37.393Z,97.88
2017-06-26T01:07:37.384Z,97.55
2017-06-26T01:08:37.456Z,98.26
2017-06-26T01:09:37.481Z,99.62
2017-06-26T01:10:37.481Z,99.70
2017-06-26T01:11:37.394Z,99.51
2017-06-26T01:12:37.395Z,99.34
2017-06-26T01:13:37.398Z,99.64
2017-06-26T01:14:37.488Z,99.53
2017-06-26T01:15:37.397Z,99.15
2017-06-26T01:16:37.439Z,99.26
2017-06-26T01:17:37.482Z,99.40
2017-06-26T01:18:37.402Z,99.81
2017-06-26T01:19:37.479Z,99.99
2017-06-26T01:20:37.484Z,99.99
2017-06-26T01:21:37.484Z,99.99
2017-06-26T01:22:37.484Z,99.89
2017-06-26T01:23:37.398Z,99.67
2017-06-26T01:24:37.479Z,99.70
2017-06-26T01:25:37.483Z,99.78
2017-06-26T01:26:37.485Z,99.99
2017-06-26T01:27:37.407Z,99.99
2017-06-26T01:28:37.399Z,99.99
2017-06-26T01:29:37.401Z,99.99
2017-06-26T01:30:37.478Z,99.99
2017-06-26T01:31:37.404Z,99.99
2017-06-26T01:32:37.468Z,99.99
2017-06-26T01:33:37.398Z,99.99
2017-06-26T01:34:37.479Z,99.99
2017-06-26T01:35:37.487Z,99.99
2017-06-26T01:36:37.400Z,99.99
2017-06-26T01:37:37.401Z,99.99
2017-06-26T01:38:37.487Z,99.99
2017-06-26T01:39:37.490Z,99.99
2017-06-26T01:40:37.409Z,99.99
2017-06-26T01:41:37.413Z,99.99
2017-06-26T01:42:37.501Z,99.99
2017-06-26T01:43:37.504Z,99.99
2017-06-26T01:44:37.404Z,99.99
2017-06-26T01:45:37.491Z,99.99
2017-06-26T01:46:37.501Z,99.99
2017-06-26T01:47:37.420Z,99.99
2017-06-26T01:48:37.415Z,99.99
2017-06-26T01:49:37.495Z,99.99
2017-06-26T01:50:37.480Z,99.99
2017-06-26T01:51:37.494Z,99.99
2017-06-26T01:52:37.462Z,99.99
2017-06-26T01:53:37.485Z,99.99
2017-06-26T01:54:37.454Z,99.99
2017-06-26T01:55:37.513Z,99.99
2017-06-26T01:56:37.503Z,99.99
2017-06-26T01:57:37.504Z,99.99
2017-06-26T01:58:37.504Z,99.99
2017-06-26T01:59:37.419Z,99.99
2017-06-26T02:00:37.429Z,99.99
2017-06-26T02:01:37.503Z,99.99
2017-06-26T02:02:37.470Z,99.99
2017-06-26T02:03:37.510Z,99.99
2017-06-26T02:04:37.422Z,99.99
2017-06-26T02:05:37.517Z,99.99
2017-06-26T02:06:37.425Z,99.99
2017-06-26T02:07:37.510Z,99.99
2017-06-26T02:08:37.543Z,99.99
2017-06-26T02:09:37.512Z,99.99
2017-06-26T02:10:37.506Z,99.99
2017-06-26T02:11:37.511Z,99.99
2017-06-26T02:12:37.432Z,99.99
2017-06-26T02:13:37.426Z,99.99
2017-06-26T02:14:37.431Z,99.99
2017-06-26T02:15:37.518Z,99.99
2017-06-26T02:17:37.515Z,99.99
2017-06-26T02:18:37.514Z,99.99
2017-06-26T02:19:37.513Z,99.99
2017-06-26T02:20:37.523Z,99.99
2017-06-26T02:21:37.521Z,99.99
2017-06-26T02:22:37.480Z,99.99
2017-06-26T02:23:37.477Z,99.99
2017-06-26T02:24:37.431Z,99.99
2017-06-26T02:25:37.501Z,99.99
2017-06-26T02:26:37.521Z,99.99
2017-06-26T02:27:37.432Z,97.55
2017-06-26T02:28:37.437Z,96.85
2017-06-26T02:29:37.427Z,95.77
2017-06-26T02:30:37.434Z,94.72
2017-06-26T02:31:37.539Z,94.69
2017-06-26T02:32:37.522Z,94.23
2017-06-26T02:33:37.518Z,93.10
2017-06-26T02:34:37.438Z,92.91
2017-06-26T02:35:37.432Z,92.86
2017-06-26T02:36:37.524Z,93.37
2017-06-26T02:37:37.531Z,92.08
2017-06-26T02:38:37.506Z,91.52
2017-06-26T02:39:37.539Z,90.96
2017-06-26T02:40:37.529Z,91.33
2017-06-26T02:41:37.527Z,91.90
2017-06-26T02:42:37.528Z,92.05
2017-06-26T02:43:37.437Z,92.16
2017-06-26T02:44:37.539Z,92.68
2017-06-26T02:45:37.447Z,92.62
2017-06-26T02:46:37.542Z,92.49
2017-06-26T02:47:37.529Z,91.92
2017-06-26T02:48:37.532Z,92.08
2017-06-26T02:49:37.439Z,93.29
2017-06-26T02:50:37.542Z,92.89
2017-06-26T02:51:37.446Z,93.18
2017-06-26T02:52:37.450Z,93.02
2017-06-26T02:53:37.536Z,92.46
2017-06-26T02:54:37.517Z,93.72
2017-06-26T02:55:37.496Z,93.62
2017-06-26T02:56:37.522Z,92.38
2017-06-26T02:57:37.448Z,91.47
2017-06-26T02:58:37.457Z,89.08
2017-06-26T02:59:37.452Z,88.97
2017-06-26T03:00:37.484Z,88.44
2017-06-26T03:01:37.458Z,87.82
2017-06-26T03:02:37.540Z,88.68
2017-06-26T03:03:37.459Z,87.96
2017-06-26T03:04:37.547Z,86.57
2017-06-26T03:05:37.543Z,86.63
2017-06-26T03:06:37.456Z,85.24
2017-06-26T03:07:37.542Z,85.32
2017-06-26T03:08:37.462Z,84.66
2017-06-26T03:09:37.544Z,85.40
2017-06-26T03:10:37.460Z,84.26
2017-06-26T03:11:37.527Z,84.71
2017-06-26T03:12:37.546Z,83.97
2017-06-26T03:13:37.542Z,83.91
2017-06-26T03:14:37.457Z,83.06
2017-06-26T03:15:37.527Z,83.83
2017-06-26T03:16:37.553Z,83.22
2017-06-26T03:17:37.462Z,83.33
2017-06-26T03:18:37.551Z,83.67
2017-06-26T03:19:37.528Z,83.51
2017-06-26T03:20:37.467Z,83.83
2017-06-26T03:21:37.553Z,83.12
2017-06-26T03:22:37.462Z,83.14
2017-06-26T03:23:37.462Z,82.72
2017-06-26T03:24:37.559Z,83.94
2017-06-26T03:25:37.555Z,82.88
2017-06-26T03:26:37.514Z,81.95
2017-06-26T03:27:37.606Z,82.61
2017-06-26T03:28:37.532Z,82.45
2017-06-26T03:29:37.473Z,81.40
2017-06-26T03:30:37.563Z,82.40
2017-06-26T03:31:37.559Z,82.72
2017-06-26T03:32:37.475Z,83.22
2017-06-26T03:33:37.558Z,83.04
2017-06-26T03:34:37.563Z,82.00
2017-06-26T03:35:37.560Z,82.24
2017-06-26T03:36:37.472Z,82.40
2017-06-26T03:37:37.565Z,82.75
2017-06-26T03:38:37.538Z,83.01
2017-06-26T03:39:37.537Z,82.75
2017-06-26T03:40:37.556Z,82.93
2017-06-26T03:41:37.521Z,83.36
2017-06-26T03:42:37.506Z,82.37
2017-06-26T03:43:37.568Z,83.12
2017-06-26T03:44:37.574Z,82.82
2017-06-26T03:45:37.568Z,83.70
2017-06-26T03:46:37.569Z,82.93
2017-06-26T03:47:37.565Z,82.75
2017-06-26T03:48:37.568Z,81.66
2017-06-26T03:49:37.546Z,81.95
2017-06-26T03:50:37.573Z,82.19
2017-06-26T03:51:37.487Z,82.56
2017-06-26T03:52:37.488Z,82.27
2017-06-26T03:53:37.528Z,82.03
2017-06-26T03:54:37.547Z,81.76
2017-06-26T03:55:37.487Z,81.74
2017-06-26T03:56:37.569Z,81.05
2017-06-26T03:57:37.488Z,80.76
2017-06-26T03:58:37.574Z,81.32
2017-06-26T03:59:37.573Z,81.79
2017-06-26T04:00:37.575Z,81.82
2017-06-26T04:01:37.694Z,82.53
2017-06-26T04:02:37.577Z,82.61
2017-06-26T04:03:37.539Z,82.85
2017-06-26T04:04:37.492Z,83.06
2017-06-26T04:05:37.569Z,82.88
2017-06-26T04:06:37.591Z,82.51
2017-06-26T04:07:37.571Z,82.37
2017-06-26T04:08:37.576Z,82.32
2017-06-26T04:09:37.536Z,82.29
2017-06-26T04:10:37.580Z,81.71
2017-06-26T04:11:37.578Z,81.60
2017-06-26T04:12:37.493Z,81.71
2017-06-26T04:13:37.577Z,81.79
2017-06-26T04:14:37.493Z,82.03
2017-06-26T04:15:37.584Z,82.21
2017-06-26T04:16:37.586Z,82.85
2017-06-26T04:17:37.493Z,83.51
2017-06-26T04:18:37.587Z,82.37
2017-06-26T04:19:37.524Z,81.87
2017-06-26T04:20:37.523Z,82.61
2017-06-26T04:21:37.499Z,82.85
2017-06-26T04:22:37.501Z,82.77
2017-06-26T04:23:37.582Z,82.56
2017-06-26T04:24:37.582Z,82.75
2017-06-26T04:25:37.557Z,83.30
2017-06-26T04:26:37.585Z,82.93
2017-06-26T04:27:37.530Z,82.75
2017-06-26T04:28:37.559Z,83.38
2017-06-26T04:29:37.590Z,83.14
2017-06-26T04:30:37.584Z,82.85
2017-06-26T04:31:37.590Z,83.33
2017-06-26T04:32:37.498Z,83.14
2017-06-26T04:33:37.508Z,82.88
2017-06-26T04:34:37.589Z,83.12
2017-06-26T04:35:37.506Z,83.14
2017-06-26T04:36:37.592Z,82.61
2017-06-26T04:37:37.588Z,82.61
2017-06-26T04:38:37.593Z,82.29
2017-06-26T04:39:37.529Z,82.35
2017-06-26T04:40:37.538Z,81.90
2017-06-26T04:41:37.597Z,82.85
2017-06-26T04:42:37.596Z,82.35
2017-06-26T04:43:37.599Z,82.69
2017-06-26T04:44:37.588Z,81.82
2017-06-26T04:45:37.571Z,81.68
2017-06-26T04:46:37.592Z,81.68
2017-06-26T04:47:37.590Z,82.11
2017-06-26T04:48:37.690Z,82.27
2017-06-26T04:49:37.595Z,82.16
2017-06-26T04:50:37.589Z,82.43
2017-06-26T04:51:37.603Z,82.64
2017-06-26T04:52:37.517Z,82.51
2017-06-26T04:53:37.577Z,81.92
2017-06-26T04:54:37.518Z,82.40
2017-06-26T04:55:37.516Z,82.75
2017-06-26T04:56:37.609Z,82.51
2017-06-26T04:57:37.604Z,82.32
2017-06-26T04:58:37.522Z,82.37
2017-06-26T04:59:37.607Z,82.75
2017-06-26T05:00:37.608Z,82.77
2017-06-26T05:01:37.598Z,83.97
2017-06-26T05:02:37.610Z,83.51
2017-06-26T05:03:37.607Z,82.24
2017-06-26T05:04:37.516Z,82.85
2017-06-26T05:05:37.608Z,82.51
2017-06-26T05:06:37.611Z,82.98
2017-06-26T05:07:37.606Z,82.69
2017-06-26T05:08:37.529Z,83.01
2017-06-26T05:09:37.566Z,82.48
2017-06-26T05:10:37.617Z,82.32
2017-06-26T05:11:37.587Z,82.61
2017-06-26T05:12:37.525Z,82.40
2017-06-26T05:13:37.609Z,82.40
2017-06-26T05:14:37.572Z,82.35
2017-06-26T05:15:37.616Z,82.88
2017-06-26T05:16:37.570Z,82.80
2017-06-26T05:17:37.529Z,82.96
2017-06-26T05:18:37.526Z,83.20
2017-06-26T05:19:37.620Z,83.09
2017-06-26T05:20:37.607Z,83.17
2017-06-26T05:21:37.528Z,82.69
2017-06-26T05:22:37.620Z,82.82
2017-06-26T05:23:37.619Z,82.88
2017-06-26T05:24:37.617Z,82.93
2017-06-26T05:25:37.621Z,82.61
2017-06-26T05:26:37.610Z,82.96
2017-06-26T05:27:37.623Z,83.33
2017-06-26T05:28:37.618Z,82.35
2017-06-26T05:29:37.592Z,82.75
2017-06-26T05:30:37.618Z,83.78
2017-06-26T05:31:37.626Z,85.56
2017-06-26T05:32:37.531Z,87.02
2017-06-26T05:33:37.624Z,89.00
2017-06-26T05:34:37.619Z,89.80
2017-06-26T05:35:37.582Z,91.71
2017-06-26T05:36:37.605Z,92.11
2017-06-26T05:37:37.536Z,91.71
2017-06-26T05:38:37.703Z,92.68
2017-06-26T05:39:37.628Z,93.05
2017-06-26T05:40:37.545Z,94.59
2017-06-26T05:41:37.605Z,95.37
2017-06-26T05:42:37.569Z,95.47
2017-06-26T05:43:37.540Z,95.50
2017-06-26T05:44:37.677Z,96.04
2017-06-26T05:45:37.543Z,95.45
2017-06-26T05:46:37.617Z,95.80
2017-06-26T05:47:37.631Z,95.77
2017-06-26T05:48:37.635Z,95.88
2017-06-26T05:49:37.680Z,95.83
2017-06-26T05:50:37.548Z,94.93
2017-06-26T05:51:37.553Z,95.04
2017-06-26T05:52:37.547Z,94.12
2017-06-26T05:53:37.635Z,95.31
2017-06-26T05:54:37.629Z,95.69
2017-06-26T05:55:37.659Z,95.61
2017-06-26T05:56:37.632Z,95.94
2017-06-26T05:57:37.554Z,96.07
2017-06-26T05:58:37.557Z,96.15
2017-06-26T05:59:37.544Z,95.77
2017-06-26T06:00:37.550Z,96.80
2017-06-26T06:01:37.553Z,97.21
2017-06-26T06:02:37.643Z,97.66
2017-06-26T06:03:37.561Z,97.83
2017-06-26T06:04:37.553Z,98.04
2017-06-26T06:05:37.559Z,98.42
2017-06-26T06:06:37.546Z,98.66
2017-06-26T06:07:37.630Z,98.29
2017-06-26T06:08:37.644Z,97.74
2017-06-26T06:09:37.617Z,98.42
2017-06-26T06:10:37.621Z,99.07
2017-06-26T06:11:37.635Z,99.13
2017-06-26T06:12:37.737Z,98.75
2017-06-26T06:13:37.647Z,98.26
2017-06-26T06:14:37.650Z,98.23
2017-06-26T06:15:37.641Z,98.07
2017-06-26T06:16:37.651Z,98.23
2017-06-26T06:17:37.641Z,98.29
2017-06-26T06:18:37.558Z,98.34
2017-06-26T06:19:37.707Z,96.99
2017-06-26T06:20:37.565Z,98.26
2017-06-26T06:21:37.592Z,98.45
2017-06-26T06:22:37.650Z,98.53
2017-06-26T06:23:37.568Z,98.12
2017-06-26T06:24:37.654Z,97.93
2017-06-26T06:25:37.654Z,98.31
2017-06-26T06:26:37.569Z,98.37
2017-06-26T06:27:37.557Z,97.80
2017-06-26T06:28:37.627Z,97.96
2017-06-26T06:29:37.651Z,98.45
2017-06-26T06:30:37.660Z,98.37
2017-06-26T06:31:37.656Z,98.37
2017-06-26T06:32:37.656Z,98.66
2017-06-26T06:33:37.664Z,98.64
2017-06-26T06:34:37.632Z,98.55
2017-06-26T06:35:37.609Z,98.15
2017-06-26T06:36:37.641Z,97.36
2017-06-26T06:37:37.576Z,97.53
2017-06-26T06:38:37.662Z,98.07
2017-06-26T06:39:37.661Z,98.75
2017-06-26T06:40:37.600Z,98.02
2017-06-26T06:41:37.652Z,97.02
2017-06-26T06:42:37.663Z,97.61
2017-06-26T06:43:37.638Z,97.39
2017-06-26T06:44:37.582Z,97.39
2017-06-26T06:45:37.666Z,97.53
2017-06-26T06:46:37.662Z,97.47
2017-06-26T06:47:37.665Z,97.77
2017-06-26T06:48:37.669Z,97.93
2017-06-26T06:49:37.667Z,97.80
2017-06-26T06:50:37.652Z,97.10
2017-06-26T06:51:37.578Z,97.88
2017-06-26T06:52:37.663Z,98.48
2017-06-26T06:53:37.663Z,98.07
2017-06-26T06:54:37.585Z,98.04
2017-06-26T06:55:37.673Z,97.64
2017-06-26T06:56:37.585Z,97.53
2017-06-26T06:57:37.573Z,97.02
2017-06-26T06:58:37.659Z,97.45
2017-06-26T06:59:37.666Z,96.42
2017-06-26T07:00:37.681Z,96.42
2017-06-26T07:01:37.705Z,96.13
2017-06-26T07:02:37.673Z,96.74
2017-06-26T07:03:37.677Z,97.28
2017-06-26T07:04:37.674Z,97.66
2017-06-26T07:05:37.663Z,97.55
2017-06-26T07:06:37.679Z,96.31
2017-06-26T07:07:37.674Z,94.42
2017-06-26T07:08:37.673Z,94.83
2017-06-26T07:09:37.677Z,94.31
2017-06-26T07:10:37.585Z,95.12
2017-06-26T07:11:37.680Z,93.85
2017-06-26T07:12:37.679Z,94.15
2017-06-26T07:13:37.669Z,92.57
2017-06-26T07:14:37.593Z,92.70
2017-06-26T07:15:37.683Z,94.29
2017-06-26T07:16:37.600Z,94.69
2017-06-26T07:17:37.651Z,93.21
2017-06-26T07:18:37.603Z,93.89
2017-06-26T07:19:37.604Z,93.85
2017-06-26T07:20:37.683Z,94.67
2017-06-26T07:21:37.642Z,94.96
2017-06-26T07:22:37.692Z,94.31
2017-06-26T07:23:37.600Z,93.99
2017-06-26T07:24:37.603Z,94.56
2017-06-26T07:25:37.593Z,94.75
2017-06-26T07:26:37.686Z,95.18
2017-06-26T07:27:37.681Z,95.18
2017-06-26T07:28:37.689Z,95.34
2017-06-26T07:29:37.627Z,96.07
2017-06-26T07:30:37.691Z,95.91
2017-06-26T07:31:37.599Z,96.07
2017-06-26T07:32:37.598Z,97.12
2017-06-26T07:33:37.605Z,97.26
2017-06-26T07:34:37.698Z,96.88
2017-06-26T07:35:37.675Z,97.21
2017-06-26T07:36:37.742Z,97.07
2017-06-26T07:37:37.687Z,97.28
2017-06-26T07:38:37.700Z,97.28
2017-06-26T07:39:37.690Z,97.99
2017-06-26T07:40:37.699Z,97.26
2017-06-26T07:41:37.687Z,96.83
2017-06-26T07:42:37.639Z,97.12
2017-06-26T07:43:37.689Z,96.50
2017-06-26T07:44:37.687Z,97.61
2017-06-26T07:45:37.733Z,98.23
2017-06-26T07:46:37.699Z,97.61
2017-06-26T07:47:37.664Z,97.53
2017-06-26T07:48:37.611Z,96.02
2017-06-26T07:49:37.703Z,95.96
2017-06-26T07:50:37.703Z,95.45
2017-06-26T07:51:37.609Z,94.80
2017-06-26T07:52:37.609Z,94.72
2017-06-26T07:53:37.702Z,95.15
2017-06-26T07:54:37.620Z,95.45
2017-06-26T07:55:37.695Z,95.58
2017-06-26T07:56:37.611Z,96.13
2017-06-26T07:57:37.620Z,96.55
2017-06-26T07:58:37.647Z,95.26
2017-06-26T07:59:37.696Z,94.80
2017-06-26T08:00:37.623Z,95.01
2017-06-26T08:01:37.620Z,95.07
2017-06-26T08:02:37.711Z,95.31
2017-06-26T08:03:37.611Z,95.56
2017-06-26T08:04:37.699Z,96.91
2017-06-26T08:05:37.714Z,93.75
2017-06-26T08:06:37.710Z,94.18
2017-06-26T08:07:37.614Z,94.12
2017-06-26T08:08:37.711Z,94.77
2017-06-26T08:09:37.706Z,95.31
2017-06-26T08:10:37.706Z,93.43
2017-06-26T08:11:37.710Z,92.35
2017-06-26T08:12:37.718Z,93.24
2017-06-26T08:13:37.713Z,93.56
2017-06-26T08:14:37.701Z,92.59
2017-06-26T08:15:37.719Z,93.26
2017-06-26T08:16:37.711Z,92.38
2017-06-26T08:17:37.710Z,92.54
2017-06-26T08:18:37.628Z,92.11
2017-06-26T08:19:37.721Z,92.57
2017-06-26T08:20:37.634Z,93.40
2017-06-26T08:21:37.710Z,94.42
2017-06-26T08:22:37.718Z,93.40
2017-06-26T08:23:37.718Z,92.51
2017-06-26T08:24:37.626Z,92.40
2017-06-26T08:25:37.768Z,93.32
2017-06-26T08:26:37.636Z,93.94
2017-06-26T08:27:37.720Z,93.48
2017-06-26T08:28:37.721Z,93.21
2017-06-26T08:29:37.638Z,93.56
2017-06-26T08:30:37.709Z,94.04
2017-06-26T08:31:37.720Z,93.64
2017-06-26T08:32:37.692Z,92.97
2017-06-26T08:33:37.639Z,94.69
2017-06-26T08:34:37.638Z,95.10
2017-06-26T08:35:37.727Z,95.91
2017-06-26T08:36:37.727Z,95.61
2017-06-26T08:37:37.722Z,93.94
2017-06-26T08:38:37.726Z,92.32
2017-06-26T08:39:37.726Z,90.39
2017-06-26T08:40:37.633Z,90.28
2017-06-26T08:41:37.731Z,91.07
2017-06-26T08:42:37.634Z,91.30
2017-06-26T08:43:37.697Z,92.78
2017-06-26T08:44:37.645Z,92.73
2017-06-26T08:45:37.646Z,92.70
2017-06-26T08:46:37.699Z,92.68
2017-06-26T08:47:37.734Z,92.16
2017-06-26T08:48:37.637Z,93.29
2017-06-26T08:49:37.735Z,92.49
2017-06-26T08:50:37.734Z,91.68
2017-06-26T08:51:37.720Z,91.52
2017-06-26T08:52:37.651Z,92.70
2017-06-26T08:53:37.735Z,92.43
2017-06-26T08:54:37.731Z,92.38
2017-06-26T08:55:37.678Z,93.59
2017-06-26T08:56:37.653Z,92.51
2017-06-26T08:57:37.725Z,93.29
2017-06-26T08:58:37.740Z,94.40
2017-06-26T08:59:37.741Z,94.45
2017-06-26T09:00:37.683Z,93.89
2017-06-26T09:01:37.655Z,89.83
2017-06-26T09:02:37.650Z,90.20
2017-06-26T09:03:37.651Z,89.67
2017-06-26T09:04:37.660Z,90.80
2017-06-26T09:05:37.650Z,87.85
2017-06-26T09:06:37.685Z,88.28
2017-06-26T09:07:37.657Z,87.69
2017-06-26T09:08:37.793Z,89.00
2017-06-26T09:09:37.749Z,91.57
2017-06-26T09:10:37.739Z,90.69
2017-06-26T09:11:37.713Z,89.80
2017-06-26T09:12:37.654Z,89.59
2017-06-26T09:13:37.750Z,89.83
2017-06-26T09:14:37.654Z,90.74
2017-06-26T09:15:37.749Z,91.11
2017-06-26T09:16:37.657Z,91.95
2017-06-26T09:17:37.738Z,88.81
2017-06-26T09:18:37.706Z,88.81
2017-06-26T09:19:37.655Z,88.97
2017-06-26T09:20:37.741Z,91.14
2017-06-26T09:21:37.724Z,89.35
2017-06-26T09:22:37.710Z,89.88
2017-06-26T09:23:37.750Z,90.85
2017-06-26T09:24:37.755Z,91.60
2017-06-26T09:25:37.744Z,89.99
2017-06-26T09:26:37.725Z,87.59
2017-06-26T09:27:37.670Z,90.13
2017-06-26T09:28:37.726Z,90.80
2017-06-26T09:29:37.749Z,90.53
2017-06-26T09:30:37.747Z,89.88
2017-06-26T09:31:37.749Z,87.26
2017-06-26T09:32:37.664Z,84.63
2017-06-26T09:33:37.694Z,84.07
2017-06-26T09:34:37.732Z,83.78
2017-06-26T09:35:37.668Z,84.74
2017-06-26T09:36:37.741Z,83.14
2017-06-26T09:37:37.717Z,83.44
2017-06-26T09:38:37.764Z,87.64
2017-06-26T09:39:37.745Z,81.71
2017-06-26T09:40:37.702Z,81.63
2017-06-26T09:41:37.730Z,80.92
2017-06-26T09:42:37.752Z,83.25
2017-06-26T09:43:37.762Z,83.36
2017-06-26T09:45:37.733Z,83.54
2017-06-26T09:46:37.822Z,84.71
2017-06-26T09:47:37.671Z,78.25
2017-06-26T09:48:37.672Z,81.58
2017-06-26T09:49:37.767Z,79.60
2017-06-26T09:50:37.676Z,77.65
2017-06-26T09:51:37.754Z,80.44
2017-06-26T09:52:37.761Z,76.65
2017-06-26T09:53:37.680Z,75.10
2017-06-26T09:54:37.681Z,74.05
2017-06-26T09:55:37.773Z,76.62
2017-06-26T09:56:37.787Z,77.81
2017-06-26T09:57:37.681Z,78.73
2017-06-26T09:58:37.710Z,80.81
2017-06-26T09:59:37.741Z,77.81
2017-06-26T10:00:37.773Z,79.28
2017-06-26T10:01:37.762Z,80.65
2017-06-26T10:02:37.776Z,79.89
2017-06-26T10:03:37.773Z,81.10
2017-06-26T10:04:37.778Z,82.45
2017-06-26T10:05:37.775Z,80.02
2017-06-26T10:06:37.689Z,81.18
2017-06-26T10:07:37.749Z,79.36
2017-06-26T10:08:37.714Z,79.55
2017-06-26T10:09:37.778Z,79.49
2017-06-26T10:10:37.686Z,77.31
2017-06-26T10:11:37.762Z,76.83
2017-06-26T10:12:37.782Z,78.62
2017-06-26T10:13:37.770Z,78.57
2017-06-26T10:14:37.784Z,78.99
2017-06-26T10:15:37.785Z,74.87
2017-06-26T10:16:37.695Z,74.24
2017-06-26T10:17:37.693Z,76.54
2017-06-26T10:18:37.782Z,73.42
2017-06-26T10:19:37.706Z,72.12
2017-06-26T10:20:37.697Z,75.10
2017-06-26T10:21:37.788Z,73.95
2017-06-26T10:22:37.779Z,72.56
2017-06-26T10:23:37.781Z,71.13
2017-06-26T10:24:37.695Z,71.15
2017-06-26T10:25:37.700Z,71.67
2017-06-26T10:26:37.776Z,75.07
2017-06-26T10:27:37.759Z,76.02
2017-06-26T10:28:37.726Z,74.63
2017-06-26T10:29:37.790Z,73.53
2017-06-26T10:30:37.782Z,71.67
2017-06-26T10:31:37.784Z,73.45
2017-06-26T10:32:37.784Z,72.98
2017-06-26T10:33:37.793Z,73.82
2017-06-26T10:34:37.707Z,73.74
2017-06-26T10:35:37.789Z,73.48
2017-06-26T10:36:37.794Z,75.29
2017-06-26T10:37:37.783Z,78.94
2017-06-26T10:38:37.795Z,75.31
2017-06-26T10:39:37.796Z,74.99
2017-06-26T10:40:37.703Z,76.52
2017-06-26T10:41:37.800Z,74.21
2017-06-26T10:42:37.696Z,74.84
2017-06-26T10:43:37.735Z,76.78
2017-06-26T10:44:37.707Z,77.91
2017-06-26T10:45:37.796Z,78.23
2017-06-26T10:46:37.820Z,79.15
2017-06-26T10:47:37.800Z,77.09
2017-06-26T10:48:37.710Z,76.60
2017-06-26T10:49:37.709Z,77.28
2017-06-26T10:50:37.719Z,79.36
2017-06-26T10:51:37.800Z,76.99
2017-06-26T10:52:37.802Z,81.34
2017-06-26T10:53:37.794Z,75.07
2017-06-26T10:54:37.792Z,75.55
2017-06-26T10:55:37.716Z,72.25
2017-06-26T10:56:37.770Z,72.67
2017-06-26T10:57:37.790Z,76.07
2017-06-26T10:58:37.745Z,74.36
2017-06-26T10:59:37.723Z,74.00
2017-06-26T11:00:37.729Z,75.10
2017-06-26T11:01:37.714Z,75.57
2017-06-26T11:02:37.825Z,75.39
2017-06-26T11:03:37.811Z,74.44
2017-06-26T11:04:37.794Z,76.10
2017-06-26T11:05:37.805Z,77.73
2017-06-26T11:06:37.803Z,76.26
2017-06-26T11:07:37.792Z,78.12
2017-06-26T11:08:37.724Z,79.28
2017-06-26T11:09:37.722Z,79.28
2017-06-26T11:10:37.815Z,81.18
2017-06-26T11:11:37.719Z,78.33
2017-06-26T11:12:37.718Z,79.55
2017-06-26T11:13:37.810Z,79.49
2017-06-26T11:14:37.725Z,79.73
2017-06-26T11:15:37.718Z,80.44
2017-06-26T11:16:37.721Z,81.68
2017-06-26T11:17:37.785Z,81.40
2017-06-26T11:18:37.720Z,81.00
2017-06-26T11:19:37.717Z,82.48
2017-06-26T11:20:37.738Z,83.25
2017-06-26T11:21:37.732Z,82.98
2017-06-26T11:22:37.800Z,83.91
2017-06-26T11:23:37.825Z,85.03
2017-06-26T11:24:37.725Z,85.32
2017-06-26T11:25:37.732Z,85.38
2017-06-26T11:26:37.817Z,85.88
2017-06-26T11:27:37.733Z,86.71
2017-06-26T11:28:37.734Z,85.38
2017-06-26T11:29:37.723Z,86.12
2017-06-26T11:30:37.740Z,86.65
2017-06-26T11:31:37.765Z,87.21
2017-06-26T11:32:37.726Z,86.60
2017-06-26T11:33:37.762Z,87.53
2017-06-26T11:34:37.825Z,88.79
2017-06-26T11:35:37.830Z,88.12
2017-06-26T11:36:37.731Z,88.20
2017-06-26T11:37:37.816Z,89.54
2017-06-26T11:38:37.822Z,89.35
2017-06-26T11:39:37.735Z,88.95
2017-06-26T11:40:37.734Z,88.15
2017-06-26T11:41:37.745Z,88.33
2017-06-26T11:42:37.744Z,87.72
2017-06-26T11:43:37.733Z,88.23
2017-06-26T11:44:37.801Z,87.69
2017-06-26T11:45:37.743Z,88.17
2017-06-26T11:46:37.735Z,87.96
2017-06-26T11:47:37.829Z,87.85
2017-06-26T11:48:37.839Z,86.33
2017-06-26T11:49:37.834Z,85.50
2017-06-26T11:50:37.827Z,85.93
2017-06-26T11:51:37.826Z,86.36
2017-06-26T11:52:37.756Z,86.60
2017-06-26T11:53:37.748Z,85.27
2017-06-26T11:54:37.805Z,85.61
2017-06-26T11:55:37.833Z,84.92
2017-06-26T11:56:37.832Z,84.60
2017-06-26T11:57:37.840Z,85.21
2017-06-26T11:58:37.837Z,83.97
2017-06-26T11:59:37.759Z,85.75
2017-06-26T12:00:37.810Z,84.52
2017-06-26T12:01:37.745Z,84.92
2017-06-26T12:02:37.759Z,85.05
2017-06-26T12:03:37.763Z,86.65
2017-06-26T12:04:37.841Z,87.34
2017-06-26T12:05:37.752Z,83.86
2017-06-26T12:06:37.760Z,82.75
2017-06-26T12:07:37.816Z,81.02
2017-06-26T12:08:37.842Z,81.74
2017-06-26T12:09:37.750Z,75.34
2017-06-26T12:10:37.838Z,76.36
2017-06-26T12:11:37.849Z,73.69
2017-06-26T12:12:37.841Z,72.64
2017-06-26T12:13:37.764Z,75.02
2017-06-26T12:14:37.759Z,73.50
2017-06-26T12:15:37.754Z,71.49
2017-06-26T12:16:37.852Z,69.28
2017-06-26T12:17:37.840Z,65.50
2017-06-26T12:18:37.770Z,67.23
2017-06-26T12:19:37.764Z,66.89
2017-06-26T12:20:37.853Z,69.18
2017-06-26T12:21:37.768Z,70.14
2017-06-26T12:22:37.818Z,70.60
2017-06-26T12:23:37.853Z,71.00
2017-06-26T12:24:37.838Z,71.67
2017-06-26T12:25:37.761Z,71.70
2017-06-26T12:26:37.764Z,70.92
2017-06-26T12:27:37.848Z,71.65
2017-06-26T12:28:37.765Z,73.11
2017-06-26T12:29:37.848Z,73.55
2017-06-26T12:30:37.857Z,72.51
2017-06-26T12:31:37.856Z,75.62
2017-06-26T12:32:37.902Z,72.14
2017-06-26T12:33:37.770Z,71.13
2017-06-26T12:34:37.776Z,71.75
2017-06-26T12:35:37.857Z,70.76
2017-06-26T12:36:37.853Z,72.46
2017-06-26T12:37:37.776Z,71.78
2017-06-26T12:38:37.856Z,70.74
2017-06-26T12:39:37.865Z,69.38
2017-06-26T12:40:37.862Z,71.91
2017-06-26T12:41:37.859Z,68.66
2017-06-26T12:42:37.782Z,68.04
2017-06-26T12:43:37.873Z,67.31
2017-06-26T12:44:37.859Z,65.42
2017-06-26T12:45:37.835Z,66.45
2017-06-26T12:46:37.773Z,66.14
2017-06-26T12:47:37.864Z,68.29
2017-06-26T12:48:37.860Z,68.29
2017-06-26T12:49:37.865Z,68.04
2017-06-26T12:50:37.782Z,67.00
2017-06-26T12:51:37.779Z,69.05
2017-06-26T12:52:37.874Z,68.27
2017-06-26T12:53:37.782Z,64.26
2017-06-26T12:54:37.784Z,65.96